sensor_id;sensor_type;location;lat;lon;timestamp;P1;durP1;ratioP1;P2;durP2;ratioP2
5465;SDS011;2755;50.728;7.108;2023-02-28T00:00:11;4.95;;;3.22;;
5465;SDS011;2755;50.728;7.108;2023-02-28T00:02:39;5.60;;;3.08;;
5465;SDS011;2755;50.728;7.108;2023-02-28T00:05:07;5.53;;;2.90;;
5465;SDS011;2755;50.728;7.108;2023-02-28T00:07:33;5.45;;;3.13;;
5465;SDS011;2755;50.728;7.108;2023-02-28T00:09:59;7.18;;;3.63;;
5465;SDS011;2755;50.728;7.108;2023-02-28T00:12:25;6.37;;;3.27;;
5465;SDS011;2755;50.728;7.108;2023-02-28T00:14:51;4.18;;;2.55;;
5465;SDS011;2755;50.728;7.108;2023-02-28T00:17:17;5.10;;;3.23;;
5465;SDS011;2755;50.728;7.108;2023-02-28T00:19:46;5.53;;;3.25;;
5465;SDS011;2755;50.728;7.108;2023-02-28T00:22:12;4.03;;;3.60;;
5465;SDS011;2755;50.728;7.108;2023-02-28T00:24:37;4.37;;;2.70;;
5465;SDS011;2755;50.728;7.108;2023-02-28T00:27:03;4.70;;;3.47;;
5465;SDS011;2755;50.728;7.108;2023-02-28T00:29:28;6.07;;;3.07;;
5465;SDS011;2755;50.728;7.108;2023-02-28T00:31:54;3.43;;;3.07;;
5465;SDS011;2755;50.728;7.108;2023-02-28T00:34:20;9.03;;;3.47;;
5465;SDS011;2755;50.728;7.108;2023-02-28T00:36:45;4.83;;;3.57;;
5465;SDS011;2755;50.728;7.108;2023-02-28T00:39:13;5.85;;;3.63;;
5465;SDS011;2755;50.728;7.108;2023-02-28T00:41:39;4.40;;;3.17;;
5465;SDS011;2755;50.728;7.108;2023-02-28T00:44:05;4.40;;;3.30;;
5465;SDS011;2755;50.728;7.108;2023-02-28T00:46:31;7.07;;;2.73;;
5465;SDS011;2755;50.728;7.108;2023-02-28T00:48:56;5.23;;;3.00;;
5465;SDS011;2755;50.728;7.108;2023-02-28T00:51:22;3.97;;;3.33;;
5465;SDS011;2755;50.728;7.108;2023-02-28T00:53:47;4.43;;;3.00;;
5465;SDS011;2755;50.728;7.108;2023-02-28T00:56:13;4.07;;;3.37;;
5465;SDS011;2755;50.728;7.108;2023-02-28T00:58:39;8.40;;;3.73;;
5465;SDS011;2755;50.728;7.108;2023-02-28T01:01:05;4.78;;;3.45;;
5465;SDS011;2755;50.728;7.108;2023-02-28T01:03:31;7.73;;;3.60;;
5465;SDS011;2755;50.728;7.108;2023-02-28T01:05:56;5.93;;;3.00;;
5465;SDS011;2755;50.728;7.108;2023-02-28T01:08:22;6.07;;;3.50;;
5465;SDS011;2755;50.728;7.108;2023-02-28T01:10:48;5.10;;;3.63;;
5465;SDS011;2755;50.728;7.108;2023-02-28T01:13:14;5.03;;;3.50;;
5465;SDS011;2755;50.728;7.108;2023-02-28T01:15:41;8.63;;;3.40;;
5465;SDS011;2755;50.728;7.108;2023-02-28T01:18:10;5.68;;;3.50;;
5465;SDS011;2755;50.728;7.108;2023-02-28T01:20:36;3.90;;;3.13;;
5465;SDS011;2755;50.728;7.108;2023-02-28T01:23:02;7.43;;;3.17;;
5465;SDS011;2755;50.728;7.108;2023-02-28T01:25:28;4.73;;;2.57;;
5465;SDS011;2755;50.728;7.108;2023-02-28T01:27:54;2.93;;;2.70;;
5465;SDS011;2755;50.728;7.108;2023-02-28T01:30:20;6.38;;;3.25;;
5465;SDS011;2755;50.728;7.108;2023-02-28T01:32:46;4.00;;;2.70;;
5465;SDS011;2755;50.728;7.108;2023-02-28T01:35:11;5.63;;;3.27;;
5465;SDS011;2755;50.728;7.108;2023-02-28T01:37:37;5.27;;;2.83;;
5465;SDS011;2755;50.728;7.108;2023-02-28T01:40:03;6.60;;;3.70;;
5465;SDS011;2755;50.728;7.108;2023-02-28T01:42:29;4.40;;;3.08;;
5465;SDS011;2755;50.728;7.108;2023-02-28T01:47:36;3.53;;;2.45;;
5465;SDS011;2755;50.728;7.108;2023-02-28T01:50:06;4.30;;;3.30;;
5465;SDS011;2755;50.728;7.108;2023-02-28T01:52:35;3.55;;;3.03;;
5465;SDS011;2755;50.728;7.108;2023-02-28T01:55:01;7.17;;;3.57;;
5465;SDS011;2755;50.728;7.108;2023-02-28T01:57:30;5.05;;;3.17;;
5465;SDS011;2755;50.728;7.108;2023-02-28T02:00:05;4.85;;;2.90;;
5465;SDS011;2755;50.728;7.108;2023-02-28T02:02:43;4.25;;;2.72;;
5465;SDS011;2755;50.728;7.108;2023-02-28T02:05:14;7.50;;;2.70;;
5465;SDS011;2755;50.728;7.108;2023-02-28T02:07:42;4.47;;;2.70;;
5465;SDS011;2755;50.728;7.108;2023-02-28T02:10:12;5.53;;;3.40;;
5465;SDS011;2755;50.728;7.108;2023-02-28T02:15:17;9.38;;;3.70;;
5465;SDS011;2755;50.728;7.108;2023-02-28T02:17:51;4.20;;;2.47;;
5465;SDS011;2755;50.728;7.108;2023-02-28T02:20:32;10.38;;;3.38;;
5465;SDS011;2755;50.728;7.108;2023-02-28T02:34:56;3.65;;;2.50;;
5465;SDS011;2755;50.728;7.108;2023-02-28T02:42:50;3.30;;;3.00;;
5465;SDS011;2755;50.728;7.108;2023-02-28T02:45:51;4.35;;;3.25;;
5465;SDS011;2755;50.728;7.108;2023-02-28T02:48:25;5.00;;;2.97;;
5465;SDS011;2755;50.728;7.108;2023-02-28T02:50:55;4.32;;;3.50;;
5465;SDS011;2755;50.728;7.108;2023-02-28T02:53:30;5.78;;;2.75;;
5465;SDS011;2755;50.728;7.108;2023-02-28T02:56:01;3.50;;;3.00;;
5465;SDS011;2755;50.728;7.108;2023-02-28T02:58:30;6.68;;;3.22;;
5465;SDS011;2755;50.728;7.108;2023-02-28T03:01:00;3.85;;;3.30;;
5465;SDS011;2755;50.728;7.108;2023-02-28T03:03:28;4.43;;;3.45;;
5465;SDS011;2755;50.728;7.108;2023-02-28T03:05:57;10.25;;;3.38;;
5465;SDS011;2755;50.728;7.108;2023-02-28T03:08:24;4.35;;;3.00;;
5465;SDS011;2755;50.728;7.108;2023-02-28T03:11:12;4.32;;;3.00;;
5465;SDS011;2755;50.728;7.108;2023-02-28T03:19:02;10.43;;;3.30;;
5465;SDS011;2755;50.728;7.108;2023-02-28T03:21:56;6.40;;;3.20;;
5465;SDS011;2755;50.728;7.108;2023-02-28T03:27:17;3.20;;;2.70;;
5465;SDS011;2755;50.728;7.108;2023-02-28T03:32:58;7.55;;;3.78;;
5465;SDS011;2755;50.728;7.108;2023-02-28T03:35:32;7.82;;;3.55;;
5465;SDS011;2755;50.728;7.108;2023-02-28T03:38:10;4.72;;;3.08;;
5465;SDS011;2755;50.728;7.108;2023-02-28T03:40:46;6.97;;;3.70;;
5465;SDS011;2755;50.728;7.108;2023-02-28T03:43:22;6.05;;;3.17;;
5465;SDS011;2755;50.728;7.108;2023-02-28T03:45:51;3.65;;;3.28;;
5465;SDS011;2755;50.728;7.108;2023-02-28T03:48:22;3.88;;;3.17;;
5465;SDS011;2755;50.728;7.108;2023-02-28T03:51:01;4.80;;;3.70;;
5465;SDS011;2755;50.728;7.108;2023-02-28T03:53:32;10.93;;;3.53;;
5465;SDS011;2755;50.728;7.108;2023-02-28T03:56:03;6.03;;;2.72;;
5465;SDS011;2755;50.728;7.108;2023-02-28T03:58:41;4.88;;;2.95;;
5465;SDS011;2755;50.728;7.108;2023-02-28T04:01:20;3.03;;;2.78;;
5465;SDS011;2755;50.728;7.108;2023-02-28T04:03:50;4.93;;;3.40;;
5465;SDS011;2755;50.728;7.108;2023-02-28T04:06:17;3.95;;;3.00;;
5465;SDS011;2755;50.728;7.108;2023-02-28T04:08:44;3.70;;;3.40;;
5465;SDS011;2755;50.728;7.108;2023-02-28T04:11:18;4.70;;;3.37;;
5465;SDS011;2755;50.728;7.108;2023-02-28T04:13:54;4.53;;;3.92;;
5465;SDS011;2755;50.728;7.108;2023-02-28T04:16:20;5.22;;;3.05;;
5465;SDS011;2755;50.728;7.108;2023-02-28T04:18:46;3.23;;;3.03;;
5465;SDS011;2755;50.728;7.108;2023-02-28T04:21:12;7.20;;;3.60;;
5465;SDS011;2755;50.728;7.108;2023-02-28T04:23:38;4.78;;;2.70;;
5465;SDS011;2755;50.728;7.108;2023-02-28T04:26:04;3.00;;;2.80;;
5465;SDS011;2755;50.728;7.108;2023-02-28T04:28:31;6.03;;;3.30;;
5465;SDS011;2755;50.728;7.108;2023-02-28T04:31:01;7.05;;;2.53;;
5465;SDS011;2755;50.728;7.108;2023-02-28T04:33:29;3.00;;;2.70;;
5465;SDS011;2755;50.728;7.108;2023-02-28T04:36:06;3.97;;;3.20;;
5465;SDS011;2755;50.728;7.108;2023-02-28T04:38:34;3.42;;;3.15;;
5465;SDS011;2755;50.728;7.108;2023-02-28T04:41:01;8.38;;;3.60;;
5465;SDS011;2755;50.728;7.108;2023-02-28T04:43:27;3.67;;;2.90;;
5465;SDS011;2755;50.728;7.108;2023-02-28T04:45:54;3.13;;;2.88;;
5465;SDS011;2755;50.728;7.108;2023-02-28T04:48:22;4.80;;;3.38;;
5465;SDS011;2755;50.728;7.108;2023-02-28T04:50:48;6.40;;;3.60;;
5465;SDS011;2755;50.728;7.108;2023-02-28T04:53:14;4.97;;;3.70;;
5465;SDS011;2755;50.728;7.108;2023-02-28T04:55:39;3.73;;;3.07;;
5465;SDS011;2755;50.728;7.108;2023-02-28T04:58:05;4.53;;;3.20;;
5465;SDS011;2755;50.728;7.108;2023-02-28T05:00:31;6.83;;;3.17;;
5465;SDS011;2755;50.728;7.108;2023-02-28T05:02:56;4.50;;;3.43;;
5465;SDS011;2755;50.728;7.108;2023-02-28T05:05:22;4.30;;;3.80;;
5465;SDS011;2755;50.728;7.108;2023-02-28T05:07:47;4.67;;;3.87;;
5465;SDS011;2755;50.728;7.108;2023-02-28T05:10:13;5.43;;;3.50;;
5465;SDS011;2755;50.728;7.108;2023-02-28T05:12:39;4.80;;;3.70;;
5465;SDS011;2755;50.728;7.108;2023-02-28T05:15:04;3.93;;;3.50;;
5465;SDS011;2755;50.728;7.108;2023-02-28T05:17:30;4.93;;;3.42;;
5465;SDS011;2755;50.728;7.108;2023-02-28T05:19:56;3.80;;;3.50;;
5465;SDS011;2755;50.728;7.108;2023-02-28T05:22:22;6.57;;;3.70;;
5465;SDS011;2755;50.728;7.108;2023-02-28T05:24:48;3.33;;;2.93;;
5465;SDS011;2755;50.728;7.108;2023-02-28T05:27:13;4.43;;;3.73;;
5465;SDS011;2755;50.728;7.108;2023-02-28T05:29:39;4.60;;;3.37;;
5465;SDS011;2755;50.728;7.108;2023-02-28T05:32:11;3.83;;;3.03;;
5465;SDS011;2755;50.728;7.108;2023-02-28T05:34:40;4.82;;;4.00;;
5465;SDS011;2755;50.728;7.108;2023-02-28T05:37:07;5.53;;;3.80;;
5465;SDS011;2755;50.728;7.108;2023-02-28T05:39:37;3.80;;;3.40;;
5465;SDS011;2755;50.728;7.108;2023-02-28T05:42:03;6.30;;;3.25;;
5465;SDS011;2755;50.728;7.108;2023-02-28T05:44:29;6.45;;;3.35;;
5465;SDS011;2755;50.728;7.108;2023-02-28T05:46:55;3.60;;;2.80;;
5465;SDS011;2755;50.728;7.108;2023-02-28T05:49:20;5.50;;;3.63;;
5465;SDS011;2755;50.728;7.108;2023-02-28T05:51:46;6.17;;;3.40;;
5465;SDS011;2755;50.728;7.108;2023-02-28T05:54:12;4.70;;;2.90;;
5465;SDS011;2755;50.728;7.108;2023-02-28T05:56:38;3.97;;;2.90;;
5465;SDS011;2755;50.728;7.108;2023-02-28T05:59:09;4.63;;;3.60;;
5465;SDS011;2755;50.728;7.108;2023-02-28T06:01:36;6.32;;;3.90;;
5465;SDS011;2755;50.728;7.108;2023-02-28T06:04:07;4.60;;;3.83;;
5465;SDS011;2755;50.728;7.108;2023-02-28T06:06:34;3.80;;;3.50;;
5465;SDS011;2755;50.728;7.108;2023-02-28T06:09:00;5.32;;;3.63;;
5465;SDS011;2755;50.728;7.108;2023-02-28T06:11:27;9.53;;;4.27;;
5465;SDS011;2755;50.728;7.108;2023-02-28T06:13:56;6.72;;;3.80;;
5465;SDS011;2755;50.728;7.108;2023-02-28T06:16:24;3.20;;;2.90;;
5465;SDS011;2755;50.728;7.108;2023-02-28T06:18:51;6.38;;;4.30;;
5465;SDS011;2755;50.728;7.108;2023-02-28T06:21:17;4.10;;;3.70;;
5465;SDS011;2755;50.728;7.108;2023-02-28T06:23:43;9.83;;;3.33;;
5465;SDS011;2755;50.728;7.108;2023-02-28T06:26:10;3.38;;;3.08;;
5465;SDS011;2755;50.728;7.108;2023-02-28T06:28:36;5.37;;;3.50;;
5465;SDS011;2755;50.728;7.108;2023-02-28T06:31:12;3.60;;;3.30;;
5465;SDS011;2755;50.728;7.108;2023-02-28T06:33:39;5.25;;;3.78;;
5465;SDS011;2755;50.728;7.108;2023-02-28T06:36:05;4.35;;;3.33;;
5465;SDS011;2755;50.728;7.108;2023-02-28T06:38:32;4.45;;;3.42;;
5465;SDS011;2755;50.728;7.108;2023-02-28T06:40:59;8.55;;;4.30;;
5465;SDS011;2755;50.728;7.108;2023-02-28T06:43:27;3.55;;;3.05;;
5465;SDS011;2755;50.728;7.108;2023-02-28T06:45:54;6.20;;;3.80;;
5465;SDS011;2755;50.728;7.108;2023-02-28T06:48:21;4.10;;;3.70;;
5465;SDS011;2755;50.728;7.108;2023-02-28T06:50:47;3.25;;;2.97;;
5465;SDS011;2755;50.728;7.108;2023-02-28T06:53:13;3.87;;;3.57;;
5465;SDS011;2755;50.728;7.108;2023-02-28T06:55:39;5.00;;;3.95;;
5465;SDS011;2755;50.728;7.108;2023-02-28T06:58:05;5.67;;;3.70;;
5465;SDS011;2755;50.728;7.108;2023-02-28T07:00:42;3.47;;;3.20;;
5465;SDS011;2755;50.728;7.108;2023-02-28T07:03:09;4.32;;;3.85;;
5465;SDS011;2755;50.728;7.108;2023-02-28T07:05:35;6.95;;;3.45;;
5465;SDS011;2755;50.728;7.108;2023-02-28T07:08:01;3.75;;;3.45;;
5465;SDS011;2755;50.728;7.108;2023-02-28T07:10:28;5.80;;;3.38;;
5465;SDS011;2755;50.728;7.108;2023-02-28T07:12:54;8.10;;;2.80;;
5465;SDS011;2755;50.728;7.108;2023-02-28T07:15:19;5.10;;;3.30;;
5465;SDS011;2755;50.728;7.108;2023-02-28T07:17:45;3.77;;;3.00;;
5465;SDS011;2755;50.728;7.108;2023-02-28T07:20:11;13.50;;;3.63;;
5465;SDS011;2755;50.728;7.108;2023-02-28T07:22:37;14.17;;;5.27;;
5465;SDS011;2755;50.728;7.108;2023-02-28T07:25:03;4.47;;;2.93;;
5465;SDS011;2755;50.728;7.108;2023-02-28T07:27:29;5.80;;;3.10;;
5465;SDS011;2755;50.728;7.108;2023-02-28T07:29:55;5.47;;;3.33;;
5465;SDS011;2755;50.728;7.108;2023-02-28T07:32:21;5.70;;;2.77;;
5465;SDS011;2755;50.728;7.108;2023-02-28T07:34:47;3.10;;;2.80;;
5465;SDS011;2755;50.728;7.108;2023-02-28T07:37:13;11.03;;;3.23;;
5465;SDS011;2755;50.728;7.108;2023-02-28T07:39:39;3.47;;;2.80;;
5465;SDS011;2755;50.728;7.108;2023-02-28T07:42:08;5.40;;;3.50;;
5465;SDS011;2755;50.728;7.108;2023-02-28T07:44:36;4.67;;;3.10;;
5465;SDS011;2755;50.728;7.108;2023-02-28T07:47:05;3.30;;;3.00;;
5465;SDS011;2755;50.728;7.108;2023-02-28T07:49:32;5.75;;;3.40;;
5465;SDS011;2755;50.728;7.108;2023-02-28T07:51:59;6.83;;;3.30;;
5465;SDS011;2755;50.728;7.108;2023-02-28T07:54:25;7.90;;;3.60;;
5465;SDS011;2755;50.728;7.108;2023-02-28T07:56:50;5.33;;;4.00;;
5465;SDS011;2755;50.728;7.108;2023-02-28T07:59:16;3.83;;;2.93;;
5465;SDS011;2755;50.728;7.108;2023-02-28T08:01:41;3.90;;;3.00;;
5465;SDS011;2755;50.728;7.108;2023-02-28T08:04:09;4.73;;;2.90;;
5465;SDS011;2755;50.728;7.108;2023-02-28T08:06:35;6.90;;;3.60;;
5465;SDS011;2755;50.728;7.108;2023-02-28T08:09:00;3.60;;;3.10;;
5465;SDS011;2755;50.728;7.108;2023-02-28T08:11:26;2.83;;;2.63;;
5465;SDS011;2755;50.728;7.108;2023-02-28T08:13:52;4.33;;;3.50;;
5465;SDS011;2755;50.728;7.108;2023-02-28T08:16:17;3.40;;;3.10;;
5465;SDS011;2755;50.728;7.108;2023-02-28T08:18:47;4.67;;;3.03;;
5465;SDS011;2755;50.728;7.108;2023-02-28T08:21:16;2.47;;;2.27;;
5465;SDS011;2755;50.728;7.108;2023-02-28T08:23:42;4.50;;;3.10;;
5465;SDS011;2755;50.728;7.108;2023-02-28T08:26:08;5.50;;;2.40;;
5465;SDS011;2755;50.728;7.108;2023-02-28T08:28:34;3.93;;;2.50;;
5465;SDS011;2755;50.728;7.108;2023-02-28T08:31:00;4.20;;;2.30;;
5465;SDS011;2755;50.728;7.108;2023-02-28T08:33:26;2.80;;;2.10;;
5465;SDS011;2755;50.728;7.108;2023-02-28T08:35:55;2.40;;;2.17;;
5465;SDS011;2755;50.728;7.108;2023-02-28T08:38:21;10.50;;;2.60;;
5465;SDS011;2755;50.728;7.108;2023-02-28T08:40:47;3.90;;;2.70;;
5465;SDS011;2755;50.728;7.108;2023-02-28T08:43:13;4.17;;;2.80;;
5465;SDS011;2755;50.728;7.108;2023-02-28T08:45:39;4.83;;;2.37;;
5465;SDS011;2755;50.728;7.108;2023-02-28T08:48:05;3.20;;;2.80;;
5465;SDS011;2755;50.728;7.108;2023-02-28T08:50:31;3.30;;;2.40;;
5465;SDS011;2755;50.728;7.108;2023-02-28T08:52:57;2.60;;;2.40;;
5465;SDS011;2755;50.728;7.108;2023-02-28T08:55:23;4.60;;;2.87;;
5465;SDS011;2755;50.728;7.108;2023-02-28T08:57:49;4.17;;;2.60;;
5465;SDS011;2755;50.728;7.108;2023-02-28T09:00:15;2.67;;;2.40;;
5465;SDS011;2755;50.728;7.108;2023-02-28T09:02:41;2.90;;;2.60;;
5465;SDS011;2755;50.728;7.108;2023-02-28T09:05:08;2.60;;;2.40;;
5465;SDS011;2755;50.728;7.108;2023-02-28T09:07:34;6.67;;;1.93;;
5465;SDS011;2755;50.728;7.108;2023-02-28T09:10:00;4.37;;;2.17;;
5465;SDS011;2755;50.728;7.108;2023-02-28T09:12:26;3.93;;;2.60;;
5465;SDS011;2755;50.728;7.108;2023-02-28T09:14:56;2.03;;;1.80;;
5465;SDS011;2755;50.728;7.108;2023-02-28T09:17:22;2.50;;;2.00;;
5465;SDS011;2755;50.728;7.108;2023-02-28T09:19:48;2.60;;;2.00;;
5465;SDS011;2755;50.728;7.108;2023-02-28T09:22:15;1.70;;;1.60;;
5465;SDS011;2755;50.728;7.108;2023-02-28T09:24:41;2.93;;;2.20;;
5465;SDS011;2755;50.728;7.108;2023-02-28T09:27:07;2.90;;;2.00;;
5465;SDS011;2755;50.728;7.108;2023-02-28T09:29:33;6.90;;;2.27;;
5465;SDS011;2755;50.728;7.108;2023-02-28T09:31:59;4.50;;;2.37;;
5465;SDS011;2755;50.728;7.108;2023-02-28T09:34:26;5.90;;;1.90;;
5465;SDS011;2755;50.728;7.108;2023-02-28T09:36:52;5.93;;;2.10;;
5465;SDS011;2755;50.728;7.108;2023-02-28T09:39:20;2.40;;;1.93;;
5465;SDS011;2755;50.728;7.108;2023-02-28T09:41:47;2.20;;;2.00;;
5465;SDS011;2755;50.728;7.108;2023-02-28T09:44:35;2.67;;;2.43;;
5465;SDS011;2755;50.728;7.108;2023-02-28T09:47:14;2.67;;;1.90;;
5465;SDS011;2755;50.728;7.108;2023-02-28T09:49:47;1.90;;;1.80;;
5465;SDS011;2755;50.728;7.108;2023-02-28T09:52:15;6.80;;;2.50;;
5465;SDS011;2755;50.728;7.108;2023-02-28T09:54:44;2.77;;;2.00;;
5465;SDS011;2755;50.728;7.108;2023-02-28T09:57:16;2.40;;;1.83;;
5465;SDS011;2755;50.728;7.108;2023-02-28T10:08:15;4.70;;;2.00;;
5465;SDS011;2755;50.728;7.108;2023-02-28T10:10:49;2.80;;;1.90;;
5465;SDS011;2755;50.728;7.108;2023-02-28T10:19:10;4.20;;;1.40;;
5465;SDS011;2755;50.728;7.108;2023-02-28T10:22:31;2.13;;;1.73;;
5465;SDS011;2755;50.728;7.108;2023-02-28T10:24:44;3.30;;;1.63;;
5465;SDS011;2755;50.728;7.108;2023-02-28T10:27:16;2.30;;;1.60;;
5465;SDS011;2755;50.728;7.108;2023-02-28T10:29:44;4.00;;;2.27;;
5465;SDS011;2755;50.728;7.108;2023-02-28T10:32:18;6.17;;;1.97;;
5465;SDS011;2755;50.728;7.108;2023-02-28T10:35:19;6.10;;;2.00;;
5465;SDS011;2755;50.728;7.108;2023-02-28T10:37:50;3.73;;;2.20;;
5465;SDS011;2755;50.728;7.108;2023-02-28T10:45:22;2.70;;;2.10;;
5465;SDS011;2755;50.728;7.108;2023-02-28T10:47:58;2.30;;;1.80;;
5465;SDS011;2755;50.728;7.108;2023-02-28T10:50:33;1.70;;;1.53;;
5465;SDS011;2755;50.728;7.108;2023-02-28T10:55:44;3.73;;;2.47;;
5465;SDS011;2755;50.728;7.108;2023-02-28T10:58:23;3.30;;;1.90;;
5465;SDS011;2755;50.728;7.108;2023-02-28T11:00:51;1.83;;;1.73;;
5465;SDS011;2755;50.728;7.108;2023-02-28T11:03:33;2.80;;;1.77;;
5465;SDS011;2755;50.728;7.108;2023-02-28T11:06:07;2.40;;;2.10;;
5465;SDS011;2755;50.728;7.108;2023-02-28T11:08:58;2.47;;;1.60;;
5465;SDS011;2755;50.728;7.108;2023-02-28T11:11:29;1.93;;;1.80;;
5465;SDS011;2755;50.728;7.108;2023-02-28T11:14:06;3.00;;;2.03;;
5465;SDS011;2755;50.728;7.108;2023-02-28T11:16:42;3.50;;;1.80;;
5465;SDS011;2755;50.728;7.108;2023-02-28T11:19:15;1.40;;;1.30;;
5465;SDS011;2755;50.728;7.108;2023-02-28T11:21:48;3.07;;;1.53;;
5465;SDS011;2755;50.728;7.108;2023-02-28T11:24:30;3.40;;;1.97;;
5465;SDS011;2755;50.728;7.108;2023-02-28T11:26:57;3.23;;;1.63;;
5465;SDS011;2755;50.728;7.108;2023-02-28T11:29:26;3.07;;;1.77;;
5465;SDS011;2755;50.728;7.108;2023-02-28T11:32:11;5.50;;;1.80;;
5465;SDS011;2755;50.728;7.108;2023-02-28T11:34:38;1.77;;;1.67;;
5465;SDS011;2755;50.728;7.108;2023-02-28T11:37:08;3.63;;;1.70;;
5465;SDS011;2755;50.728;7.108;2023-02-28T11:39:38;2.70;;;1.77;;
5465;SDS011;2755;50.728;7.108;2023-02-28T11:44:54;3.80;;;2.40;;
5465;SDS011;2755;50.728;7.108;2023-02-28T11:47:37;3.87;;;1.47;;
5465;SDS011;2755;50.728;7.108;2023-02-28T11:52:53;2.43;;;1.73;;
5465;SDS011;2755;50.728;7.108;2023-02-28T11:55:32;2.63;;;1.33;;
5465;SDS011;2755;50.728;7.108;2023-02-28T12:03:56;2.83;;;2.13;;
5465;SDS011;2755;50.728;7.108;2023-02-28T12:17:48;3.17;;;2.00;;
5465;SDS011;2755;50.728;7.108;2023-02-28T12:20:21;3.13;;;1.97;;
5465;SDS011;2755;50.728;7.108;2023-02-28T12:23:23;2.20;;;1.80;;
5465;SDS011;2755;50.728;7.108;2023-02-28T12:28:46;2.30;;;1.90;;
5465;SDS011;2755;50.728;7.108;2023-02-28T12:33:43;2.53;;;2.23;;
5465;SDS011;2755;50.728;7.108;2023-02-28T12:36:16;3.13;;;2.10;;
5465;SDS011;2755;50.728;7.108;2023-02-28T12:44:27;2.60;;;1.87;;
5465;SDS011;2755;50.728;7.108;2023-02-28T12:46:48;3.20;;;1.70;;
5465;SDS011;2755;50.728;7.108;2023-02-28T12:49:25;4.47;;;1.80;;
5465;SDS011;2755;50.728;7.108;2023-02-28T12:51:55;3.20;;;2.40;;
5465;SDS011;2755;50.728;7.108;2023-02-28T12:57:17;2.03;;;1.90;;
5465;SDS011;2755;50.728;7.108;2023-02-28T12:59:51;3.43;;;2.30;;
5465;SDS011;2755;50.728;7.108;2023-02-28T13:11:25;2.40;;;1.87;;
5465;SDS011;2755;50.728;7.108;2023-02-28T13:14:02;3.90;;;1.90;;
5465;SDS011;2755;50.728;7.108;2023-02-28T13:16:54;2.60;;;2.23;;
5465;SDS011;2755;50.728;7.108;2023-02-28T13:19:18;2.30;;;2.10;;
5465;SDS011;2755;50.728;7.108;2023-02-28T13:21:46;3.23;;;1.90;;
5465;SDS011;2755;50.728;7.108;2023-02-28T13:24:35;3.13;;;2.57;;
5465;SDS011;2755;50.728;7.108;2023-02-28T13:27:20;4.13;;;2.00;;
5465;SDS011;2755;50.728;7.108;2023-02-28T13:35:45;2.30;;;2.03;;
5465;SDS011;2755;50.728;7.108;2023-02-28T13:38:24;3.00;;;2.33;;
5465;SDS011;2755;50.728;7.108;2023-02-28T13:41:26;4.03;;;2.90;;
5465;SDS011;2755;50.728;7.108;2023-02-28T13:43:59;6.13;;;2.03;;
5465;SDS011;2755;50.728;7.108;2023-02-28T13:51:51;2.47;;;2.20;;
5465;SDS011;2755;50.728;7.108;2023-02-28T13:56:56;2.73;;;2.53;;
5465;SDS011;2755;50.728;7.108;2023-02-28T13:59:33;3.33;;;3.03;;
5465;SDS011;2755;50.728;7.108;2023-02-28T14:04:41;4.40;;;2.63;;
5465;SDS011;2755;50.728;7.108;2023-02-28T14:07:09;4.13;;;2.70;;
5465;SDS011;2755;50.728;7.108;2023-02-28T14:09:54;4.10;;;2.60;;
5465;SDS011;2755;50.728;7.108;2023-02-28T14:18:37;3.17;;;2.33;;
5465;SDS011;2755;50.728;7.108;2023-02-28T14:29:41;5.10;;;2.33;;
5465;SDS011;2755;50.728;7.108;2023-02-28T14:32:21;3.57;;;3.17;;
5465;SDS011;2755;50.728;7.108;2023-02-28T14:37:43;6.03;;;2.63;;
5465;SDS011;2755;50.728;7.108;2023-02-28T14:40:16;5.00;;;2.70;;
5465;SDS011;2755;50.728;7.108;2023-02-28T14:42:47;4.43;;;3.00;;
5465;SDS011;2755;50.728;7.108;2023-02-28T14:45:20;4.37;;;2.50;;
5465;SDS011;2755;50.728;7.108;2023-02-28T14:47:47;3.10;;;2.50;;
5465;SDS011;2755;50.728;7.108;2023-02-28T14:50:18;4.63;;;2.90;;
5465;SDS011;2755;50.728;7.108;2023-02-28T14:52:48;4.00;;;2.63;;
5465;SDS011;2755;50.728;7.108;2023-02-28T14:55:18;5.63;;;2.70;;
5465;SDS011;2755;50.728;7.108;2023-02-28T15:00:54;2.70;;;2.50;;
5465;SDS011;2755;50.728;7.108;2023-02-28T15:03:22;5.87;;;2.80;;
5465;SDS011;2755;50.728;7.108;2023-02-28T15:05:59;3.80;;;3.40;;
5465;SDS011;2755;50.728;7.108;2023-02-28T15:08:27;3.60;;;3.03;;
5465;SDS011;2755;50.728;7.108;2023-02-28T15:10:57;4.10;;;3.00;;
5465;SDS011;2755;50.728;7.108;2023-02-28T15:16:12;3.40;;;2.97;;
5465;SDS011;2755;50.728;7.108;2023-02-28T15:21:38;4.33;;;3.03;;
5465;SDS011;2755;50.728;7.108;2023-02-28T15:24:08;3.40;;;3.03;;
5465;SDS011;2755;50.728;7.108;2023-02-28T15:26:42;7.63;;;3.47;;
5465;SDS011;2755;50.728;7.108;2023-02-28T15:29:15;4.60;;;2.70;;
5465;SDS011;2755;50.728;7.108;2023-02-28T15:31:49;3.30;;;3.00;;
5465;SDS011;2755;50.728;7.108;2023-02-28T15:34:18;4.83;;;3.70;;
5465;SDS011;2755;50.728;7.108;2023-02-28T15:36:46;4.37;;;3.00;;
5465;SDS011;2755;50.728;7.108;2023-02-28T15:39:25;4.27;;;3.27;;
5465;SDS011;2755;50.728;7.108;2023-02-28T15:42:09;4.13;;;3.13;;
5465;SDS011;2755;50.728;7.108;2023-02-28T15:44:43;5.30;;;3.23;;
5465;SDS011;2755;50.728;7.108;2023-02-28T15:47:15;3.20;;;2.90;;
5465;SDS011;2755;50.728;7.108;2023-02-28T15:49:50;4.30;;;3.53;;
5465;SDS011;2755;50.728;7.108;2023-02-28T15:52:24;4.90;;;2.50;;
5465;SDS011;2755;50.728;7.108;2023-02-28T15:54:58;3.10;;;2.80;;
5465;SDS011;2755;50.728;7.108;2023-02-28T15:57:25;8.13;;;2.60;;
5465;SDS011;2755;50.728;7.108;2023-02-28T15:59:55;4.73;;;3.43;;
5465;SDS011;2755;50.728;7.108;2023-02-28T16:02:35;2.63;;;2.43;;
5465;SDS011;2755;50.728;7.108;2023-02-28T16:05:16;6.37;;;3.17;;
5465;SDS011;2755;50.728;7.108;2023-02-28T16:07:53;3.37;;;3.07;;
5465;SDS011;2755;50.728;7.108;2023-02-28T16:10:21;10.20;;;3.07;;
5465;SDS011;2755;50.728;7.108;2023-02-28T16:12:52;3.10;;;2.80;;
5465;SDS011;2755;50.728;7.108;2023-02-28T16:15:24;6.70;;;3.70;;
5465;SDS011;2755;50.728;7.108;2023-02-28T16:17:52;7.60;;;3.30;;
5465;SDS011;2755;50.728;7.108;2023-02-28T16:20:19;3.70;;;3.03;;
5465;SDS011;2755;50.728;7.108;2023-02-28T16:22:47;4.30;;;3.27;;
5465;SDS011;2755;50.728;7.108;2023-02-28T16:25:13;3.90;;;2.97;;
5465;SDS011;2755;50.728;7.108;2023-02-28T16:27:40;5.03;;;3.47;;
5465;SDS011;2755;50.728;7.108;2023-02-28T16:30:09;7.43;;;3.07;;
5465;SDS011;2755;50.728;7.108;2023-02-28T16:32:44;7.97;;;2.90;;
5465;SDS011;2755;50.728;7.108;2023-02-28T16:35:10;3.97;;;2.90;;
5465;SDS011;2755;50.728;7.108;2023-02-28T16:37:36;5.13;;;3.10;;
5465;SDS011;2755;50.728;7.108;2023-02-28T16:40:03;3.87;;;3.20;;
5465;SDS011;2755;50.728;7.108;2023-02-28T16:42:29;3.90;;;2.97;;
5465;SDS011;2755;50.728;7.108;2023-02-28T16:44:56;5.23;;;2.90;;
5465;SDS011;2755;50.728;7.108;2023-02-28T16:47:23;4.80;;;3.50;;
5465;SDS011;2755;50.728;7.108;2023-02-28T16:49:48;6.63;;;3.17;;
5465;SDS011;2755;50.728;7.108;2023-02-28T16:52:14;4.60;;;3.30;;
5465;SDS011;2755;50.728;7.108;2023-02-28T16:54:41;4.03;;;3.27;;
5465;SDS011;2755;50.728;7.108;2023-02-28T16:57:15;6.10;;;3.90;;
5465;SDS011;2755;50.728;7.108;2023-02-28T16:59:46;5.47;;;3.57;;
5465;SDS011;2755;50.728;7.108;2023-02-28T17:02:14;3.67;;;3.20;;
5465;SDS011;2755;50.728;7.108;2023-02-28T17:04:41;6.00;;;2.47;;
5465;SDS011;2755;50.728;7.108;2023-02-28T17:07:11;3.47;;;3.00;;
5465;SDS011;2755;50.728;7.108;2023-02-28T17:09:38;5.17;;;3.47;;
5465;SDS011;2755;50.728;7.108;2023-02-28T17:12:04;5.53;;;3.27;;
5465;SDS011;2755;50.728;7.108;2023-02-28T17:14:30;4.53;;;3.43;;
5465;SDS011;2755;50.728;7.108;2023-02-28T17:16:56;3.80;;;3.23;;
5465;SDS011;2755;50.728;7.108;2023-02-28T17:19:22;4.60;;;3.50;;
5465;SDS011;2755;50.728;7.108;2023-02-28T17:21:47;5.43;;;3.70;;
5465;SDS011;2755;50.728;7.108;2023-02-28T17:24:13;5.77;;;3.20;;
5465;SDS011;2755;50.728;7.108;2023-02-28T17:26:40;5.07;;;3.57;;
5465;SDS011;2755;50.728;7.108;2023-02-28T17:29:14;4.80;;;3.87;;
5465;SDS011;2755;50.728;7.108;2023-02-28T17:31:41;12.93;;;3.70;;
5465;SDS011;2755;50.728;7.108;2023-02-28T17:34:07;4.53;;;3.10;;
5465;SDS011;2755;50.728;7.108;2023-02-28T17:36:33;5.23;;;3.10;;
5465;SDS011;2755;50.728;7.108;2023-02-28T17:39:00;5.00;;;3.60;;
5465;SDS011;2755;50.728;7.108;2023-02-28T17:41:26;4.53;;;3.93;;
5465;SDS011;2755;50.728;7.108;2023-02-28T17:43:55;5.13;;;2.90;;
5465;SDS011;2755;50.728;7.108;2023-02-28T17:46:22;4.73;;;3.27;;
5465;SDS011;2755;50.728;7.108;2023-02-28T17:48:50;4.80;;;3.60;;
5465;SDS011;2755;50.728;7.108;2023-02-28T17:51:17;4.77;;;3.50;;
5465;SDS011;2755;50.728;7.108;2023-02-28T17:53:44;5.60;;;3.10;;